Time;durP1;ratioP1;P1;durP2;ratioP2;P2;SDS_P1;SDS_P2;PMS_P1;PMS_P2;Temp;Humidity;BMP_temperature;BMP_pressure;BME280_temperature;BME280_humidity;BME280_pressure;Samples;Min_cycle;Max_cycle;Signal;HPM_P1;HPM_P2
2023/07/22 00:02:18;;;;;;;4.13;3.83;;;21.90;55.30;;;;;;5138576;27;20651;-69
2023/07/22 00:04:43;;;;;;;4.72;4.32;;;21.90;55.30;;;;;;5139948;27;20510;-68
2023/07/22 00:07:09;;;;;;;5.90;4.45;;;21.90;55.80;;;;;;5134789;27;20165;-68
2023/07/22 00:09:34;;;;;;;4.00;3.70;;;21.90;55.30;;;;;;5135466;27;20221;-68
2023/07/22 00:12:00;;;;;;;5.72;4.38;;;21.90;55.20;;;;;;5135877;27;20173;-67
2023/07/22 00:14:26;;;;;;;4.95;4.28;;;21.90;55.20;;;;;;5135964;27;20527;-67
2023/07/22 00:16:51;;;;;;;5.22;4.68;;;21.90;55.20;;;;;;5135228;27;20200;-67
2023/07/22 00:19:17;;;;;;;5.72;4.22;;;21.90;55.20;;;;;;5135850;27;20177;-67
2023/07/22 00:21:42;;;;;;;4.88;4.47;;;21.90;55.10;;;;;;5136072;27;20531;-68
2023/07/22 00:24:17;;;;;;;4.57;4.18;;;21.80;54.60;;;;;;5134956;27;20272;-66
2023/07/22 00:26:43;;;;;;;5.15;4.20;;;21.90;55.30;;;;;;5135804;27;20164;-67
2023/07/22 00:29:08;;;;;;;5.07;4.63;;;21.80;55.20;;;;;;5135472;27;20199;-67
2023/07/22 00:31:34;;;;;;;4.68;4.28;;;21.80;55.10;;;;;;5135188;27;20658;-68
2023/07/22 00:34:00;;;;;;;5.63;4.43;;;21.80;55.00;;;;;;5135594;27;20242;-69
2023/07/22 00:36:26;;;;;;;5.93;4.55;;;21.80;55.20;;;;;;5135567;27;20184;-68
2023/07/22 00:38:52;;;;;;;5.57;4.43;;;21.90;55.20;;;;;;5134711;27;20216;-68
2023/07/22 00:41:18;;;;;;;4.22;3.83;;;21.80;55.20;;;;;;5135523;27;20184;-68
2023/07/22 00:43:44;;;;;;;5.20;4.70;;;21.80;55.30;;;;;;5135606;27;20627;-68
2023/07/22 00:46:09;;;;;;;4.70;4.20;;;21.80;55.20;;;;;;5134745;27;20627;-68
2023/07/22 00:48:35;;;;;;;5.75;4.57;;;21.80;55.30;;;;;;5135562;27;20172;-66
2023/07/22 00:51:00;;;;;;;5.40;4.65;;;21.80;55.10;;;;;;5116489;27;20204;-67
2023/07/22 00:53:26;;;;;;;5.60;4.82;;;21.70;55.00;;;;;;5116687;27;20169;-66
2023/07/22 00:55:52;;;;;;;4.55;4.15;;;21.80;55.00;;;;;;5135314;27;20255;-67
2023/07/22 00:58:17;;;;;;;4.75;4.30;;;21.80;55.30;;;;;;5134278;27;20223;-68
2023/07/22 01:00:43;;;;;;;4.68;4.28;;;21.70;55.00;;;;;;5135099;27;20643;-68
2023/07/22 01:03:08;;;;;;;4.82;4.20;;;21.80;55.10;;;;;;5135100;27;20193;-68
2023/07/22 01:05:34;;;;;;;4.75;4.32;;;21.80;55.20;;;;;;5134527;27;20169;-68
2023/07/22 01:07:59;;;;;;;5.60;4.13;;;21.70;55.00;;;;;;5099458;27;20543;-68
2023/07/22 01:10:25;;;;;;;4.50;4.10;;;21.70;55.00;;;;;;5134863;27;20231;-68
2023/07/22 01:12:50;;;;;;;5.18;4.57;;;21.70;55.00;;;;;;5134037;27;20255;-67
2023/07/22 01:15:16;;;;;;;5.25;4.60;;;21.70;55.20;;;;;;5134702;27;20179;-67
2023/07/22 01:17:45;;;;;;;4.70;4.30;;;21.70;55.00;;;;;;5134832;27;20179;-67
2023/07/22 01:20:11;;;;;;;4.53;4.13;;;21.70;54.90;;;;;;5133866;27;20176;-67
2023/07/22 01:22:36;;;;;;;5.63;4.45;;;21.70;55.00;;;;;;5116879;27;20579;-67
2023/07/22 01:25:02;;;;;;;4.50;4.10;;;21.70;54.80;;;;;;5134450;27;20244;-67
2023/07/22 01:27:27;;;;;;;5.00;4.53;;;21.70;55.00;;;;;;5133866;27;20225;-67
2023/07/22 01:29:53;;;;;;;4.57;4.15;;;21.70;55.10;;;;;;5134402;27;20585;-67
2023/07/22 01:32:19;;;;;;;4.57;4.18;;;21.70;54.90;;;;;;5134423;27;20623;-68
2023/07/22 01:34:45;;;;;;;4.78;4.28;;;21.70;54.90;;;;;;5133882;27;20218;-68
2023/07/22 01:37:11;;;;;;;5.22;4.55;;;21.70;54.80;;;;;;5134129;27;20176;-69
2023/07/22 01:39:36;;;;;;;4.60;4.07;;;21.60;54.80;;;;;;5134203;27;20221;-68
2023/07/22 01:42:02;;;;;;;4.70;4.03;;;21.60;54.80;;;;;;5133220;27;20179;-68
2023/07/22 01:44:28;;;;;;;4.45;4.05;;;21.60;54.90;;;;;;5134533;27;20175;-67
2023/07/22 01:46:54;;;;;;;4.63;4.22;;;21.60;54.90;;;;;;5134475;27;20584;-67
2023/07/22 01:49:19;;;;;;;5.05;4.28;;;21.60;54.80;;;;;;5133426;27;20184;-67
2023/07/22 01:51:45;;;;;;;4.57;4.07;;;21.60;54.90;;;;;;5134196;27;20367;-67
2023/07/22 01:54:12;;;;;;;4.82;4.00;;;21.70;55.00;;;;;;5134045;27;20168;-67
2023/07/22 01:56:37;;;;;;;4.90;4.40;;;21.60;54.80;;;;;;5133304;27;20176;-67
2023/07/22 01:59:03;;;;;;;5.28;3.97;;;21.60;54.90;;;;;;5133669;27;20649;-68
2023/07/22 02:01:29;;;;;;;4.57;4.18;;;21.60;54.90;;;;;;5132978;27;20177;-69
2023/07/22 02:03:55;;;;;;;4.25;3.95;;;21.60;55.00;;;;;;5134125;27;20193;-69
2023/07/22 02:06:20;;;;;;;5.07;4.57;;;21.60;55.00;;;;;;5134035;27;20305;-68
2023/07/22 02:08:46;;;;;;;3.92;3.63;;;21.60;54.90;;;;;;5133174;27;20267;-67
2023/07/22 02:11:11;;;;;;;4.57;4.18;;;21.60;55.00;;;;;;5133450;27;20206;-68
2023/07/22 02:13:37;;;;;;;4.57;3.97;;;21.60;54.90;;;;;;5133767;27;20202;-67
2023/07/22 02:16:03;;;;;;;4.20;3.80;;;21.60;55.00;;;;;;5132750;27;20175;-67
2023/07/22 02:18:29;;;;;;;4.53;4.13;;;21.60;55.00;;;;;;5134013;27;20176;-68
2023/07/22 02:20:55;;;;;;;4.30;3.90;;;21.60;55.00;;;;;;5133957;27;20169;-68
2023/07/22 02:23:21;;;;;;;5.30;4.38;;;21.50;54.90;;;;;;5133119;27;20221;-67
2023/07/22 02:25:56;;;;;;;4.32;3.85;;;21.60;55.00;;;;;;5132822;27;20188;-67
2023/07/22 02:28:22;;;;;;;4.28;3.88;;;21.50;54.90;;;;;;5133056;27;20514;-67
2023/07/22 02:30:54;;;;;;;4.32;3.97;;;21.50;55.00;;;;;;5132711;27;20242;-67
2023/07/22 02:33:21;;;;;;;4.78;4.38;;;21.50;55.00;;;;;;5133361;27;20172;-68
2023/07/22 02:35:47;;;;;;;5.63;4.45;;;21.50;54.90;;;;;;5133510;27;20699;-68
2023/07/22 02:38:14;;;;;;;4.45;4.05;;;21.50;55.00;;;;;;5132348;27;20176;-69
2023/07/22 02:40:39;;;;;;;4.20;3.80;;;21.50;54.90;;;;;;5133410;27;20687;-68
2023/07/22 02:43:06;;;;;;;4.43;4.03;;;21.50;54.80;;;;;;5133260;27;20649;-67
2023/07/22 02:45:35;;;;;;;4.13;3.72;;;21.50;54.80;;;;;;5132661;27;20173;-67
2023/07/22 02:48:01;;;;;;;4.15;3.30;;;21.50;54.80;;;;;;5133066;27;20180;-67
2023/07/22 02:50:26;;;;;;;3.97;3.65;;;21.50;55.10;;;;;;5133189;27;20218;-67
2023/07/22 02:52:52;;;;;;;4.68;4.28;;;21.50;54.90;;;;;;5132423;28;20658;-67
2023/07/22 02:55:20;;;;;;;4.63;4.22;;;21.50;54.80;;;;;;5132920;28;20203;-67
2023/07/22 02:57:46;;;;;;;4.50;4.10;;;21.50;55.00;;;;;;5132345;28;20172;-67
2023/07/22 03:00:13;;;;;;;4.82;4.43;;;21.50;54.90;;;;;;5133148;28;20172;-68
2023/07/22 03:02:41;;;;;;;4.28;3.85;;;21.40;54.80;;;;;;5133281;28;20164;-68
2023/07/22 03:05:07;;;;;;;4.22;3.80;;;21.40;54.80;;;;;;5132241;28;20225;-68
2023/07/22 03:07:37;;;;;;;4.30;3.90;;;21.40;54.70;;;;;;5114833;28;20168;-67
2023/07/22 03:10:03;;;;;;;4.65;4.03;;;21.40;54.70;;;;;;5132839;28;20204;-68
2023/07/22 03:12:28;;;;;;;5.82;4.38;;;21.40;54.80;;;;;;5132448;28;20180;-68
2023/07/22 03:14:54;;;;;;;5.80;4.75;;;21.40;54.80;;;;;;5133303;28;20679;-67
2023/07/22 03:17:20;;;;;;;4.65;4.25;;;21.40;54.60;;;;;;5132810;28;20638;-67
2023/07/22 03:19:46;;;;;;;4.30;3.90;;;21.40;54.90;;;;;;5132561;28;20178;-67
2023/07/22 03:22:14;;;;;;;5.07;4.45;;;21.40;54.70;;;;;;5132890;28;20173;-68
2023/07/22 03:24:39;;;;;;;5.50;4.38;;;21.40;54.60;;;;;;5133127;28;20604;-66
2023/07/22 03:27:06;;;;;;;4.63;4.22;;;21.40;54.80;;;;;;5132124;28;20237;-67
2023/07/22 03:29:32;;;;;;;4.63;4.15;;;21.40;54.80;;;;;;5132961;28;20243;-67
2023/07/22 03:31:57;;;;;;;5.88;4.55;;;21.40;55.40;;;;;;5114327;28;20259;-67
2023/07/22 03:34:23;;;;;;;5.22;4.72;;;21.40;54.70;;;;;;5132251;28;20165;-68
2023/07/22 03:36:48;;;;;;;5.20;4.70;;;21.30;54.60;;;;;;5132639;28;20682;-68
2023/07/22 03:39:14;;;;;;;4.57;4.18;;;21.40;54.60;;;;;;5132546;28;20255;-68
2023/07/22 03:41:40;;;;;;;4.63;4.20;;;21.30;54.60;;;;;;5134172;27;20199;-68
2023/07/22 03:44:05;;;;;;;5.05;4.55;;;21.30;54.80;;;;;;5136608;27;20194;-67
2023/07/22 03:46:31;;;;;;;5.47;4.97;;;21.40;54.80;;;;;;5136876;27;20998;-67
2023/07/22 03:48:56;;;;;;;5.20;4.07;;;21.30;54.60;;;;;;5135654;27;20196;-67
2023/07/22 03:51:22;;;;;;;4.75;4.35;;;21.30;54.70;;;;;;5136424;27;20196;-67
2023/07/22 03:53:47;;;;;;;6.07;4.45;;;21.30;54.40;;;;;;5136709;27;20196;-66
2023/07/22 03:56:13;;;;;;;5.35;4.10;;;21.30;54.60;;;;;;5135667;27;20187;-67
2023/07/22 03:58:38;;;;;;;4.85;4.43;;;21.30;54.60;;;;;;5136537;27;20196;-67
2023/07/22 04:01:04;;;;;;;4.72;4.22;;;21.30;54.50;;;;;;5135508;27;20252;-68
2023/07/22 04:03:30;;;;;;;5.55;4.55;;;21.30;54.60;;;;;;5136315;27;20165;-68
2023/07/22 04:05:56;;;;;;;4.55;3.83;;;21.30;54.40;;;;;;5136074;27;20176;-68
2023/07/22 04:08:21;;;;;;;4.97;4.57;;;21.30;54.40;;;;;;5135416;27;20255;-67
2023/07/22 04:10:57;;;;;;;5.10;4.10;;;21.30;54.40;;;;;;5136294;27;20295;-68
2023/07/22 04:13:23;;;;;;;5.88;3.80;;;21.30;54.50;;;;;;5136209;27;20292;-67
2023/07/22 04:15:49;;;;;;;5.97;4.40;;;21.30;54.60;;;;;;5135444;27;20168;-67
2023/07/22 04:18:18;;;;;;;4.95;4.07;;;21.30;54.60;;;;;;5135894;27;20516;-67
2023/07/22 04:20:43;;;;;;;5.00;4.50;;;21.30;54.50;;;;;;5135973;27;20166;-67
2023/07/22 04:23:09;;;;;;;4.65;4.25;;;21.30;55.10;;;;;;5135111;27;20176;-67
2023/07/22 04:25:44;;;;;;;5.22;4.65;;;21.30;54.50;;;;;;5136020;27;20177;-66
2023/07/22 04:28:10;;;;;;;4.55;4.15;;;21.30;54.40;;;;;;5135629;27;20186;-67
2023/07/22 04:30:36;;;;;;;4.85;4.25;;;21.30;55.00;;;;;;5134888;27;20200;-67
2023/07/22 04:33:10;;;;;;;4.85;4.22;;;21.20;54.50;;;;;;5135452;27;20588;-67
2023/07/22 04:35:40;;;;;;;5.40;4.50;;;21.30;54.40;;;;;;5135621;27;20827;-69
2023/07/22 04:38:06;;;;;;;4.80;3.95;;;21.20;54.40;;;;;;5134830;27;20176;-68
2023/07/22 04:40:32;;;;;;;4.32;3.92;;;21.20;54.40;;;;;;5135428;27;20224;-68
2023/07/22 04:42:57;;;;;;;4.50;4.10;;;21.30;54.40;;;;;;5135582;27;20172;-67
2023/07/22 04:45:24;;;;;;;4.97;4.47;;;21.30;54.40;;;;;;5134834;27;20283;-67
2023/07/22 04:47:50;;;;;;;5.50;4.20;;;21.30;54.40;;;;;;5135495;27;20256;-67
2023/07/22 04:50:16;;;;;;;5.05;4.60;;;21.30;54.40;;;;;;5134436;27;20606;-66
2023/07/22 04:52:43;;;;;;;5.57;4.63;;;21.30;54.40;;;;;;5134962;27;20631;-66
2023/07/22 04:55:09;;;;;;;4.55;4.10;;;21.30;54.40;;;;;;5135064;27;20194;-66
2023/07/22 04:57:36;;;;;;;4.70;4.28;;;21.30;54.50;;;;;;5134664;27;20172;-66
2023/07/22 05:00:06;;;;;;;5.13;4.63;;;21.30;54.50;;;;;;5134690;27;20169;-67
2023/07/22 05:02:32;;;;;;;6.45;4.45;;;21.30;54.50;;;;;;5135270;27;20173;-67
2023/07/22 05:04:57;;;;;;;5.05;4.20;;;21.20;54.50;;;;;;5134249;27;20176;-68
2023/07/22 05:07:23;;;;;;;4.70;3.67;;;21.20;54.60;;;;;;5135175;27;20175;-68
2023/07/22 05:09:49;;;;;;;5.50;4.95;;;21.20;54.60;;;;;;5134954;27;20592;-67
2023/07/22 05:12:15;;;;;;;4.85;4.35;;;21.30;55.30;;;;;;5134076;27;20590;-68
2023/07/22 05:14:40;;;;;;;5.03;4.53;;;21.30;54.70;;;;;;5134767;27;20630;-66
2023/07/22 05:17:06;;;;;;;5.70;5.20;;;21.30;54.70;;;;;;5134537;27;20173;-68
2023/07/22 05:19:32;;;;;;;6.40;4.35;;;21.30;54.70;;;;;;5134014;27;20192;-68
2023/07/22 05:21:57;;;;;;;6.28;4.47;;;21.30;54.70;;;;;;5134734;27;20164;-68
2023/07/22 05:24:23;;;;;;;5.03;4.57;;;21.20;54.80;;;;;;5134831;27;20168;-68
2023/07/22 05:26:48;;;;;;;5.00;4.60;;;21.20;54.90;;;;;;5133985;27;20244;-67
2023/07/22 05:29:14;;;;;;;5.47;4.97;;;21.30;55.00;;;;;;5134336;27;20168;-67
2023/07/22 05:31:39;;;;;;;5.03;4.60;;;21.30;55.10;;;;;;5134435;27;20208;-68
2023/07/22 05:34:05;;;;;;;5.47;4.97;;;21.20;55.10;;;;;;5133450;27;20168;-68
2023/07/22 05:36:30;;;;;;;5.85;5.25;;;21.20;55.20;;;;;;5134520;27;20217;-69
2023/07/22 05:38:57;;;;;;;6.72;5.82;;;21.20;55.30;;;;;;5133788;27;20241;-69
2023/07/22 05:41:25;;;;;;;5.88;5.00;;;21.30;55.40;;;;;;5133741;27;20275;-68
2023/07/22 05:43:51;;;;;;;6.40;5.60;;;21.30;55.40;;;;;;5099446;27;20520;-68
2023/07/22 05:46:16;;;;;;;8.02;6.10;;;21.30;55.50;;;;;;5115837;27;20263;-67
2023/07/22 05:48:42;;;;;;;8.90;5.95;;;21.30;55.60;;;;;;5133652;27;20169;-68
2023/07/22 05:51:08;;;;;;;7.05;6.00;;;21.30;55.50;;;;;;5133857;27;20298;-67
2023/07/22 05:53:33;;;;;;;7.22;6.07;;;21.30;55.50;;;;;;5133616;27;20176;-67
2023/07/22 05:55:59;;;;;;;6.78;6.07;;;21.30;55.50;;;;;;5133868;27;20169;-67
2023/07/22 05:58:24;;;;;;;6.22;5.63;;;21.30;56.20;;;;;;5134004;27;20179;-68
2023/07/22 06:00:51;;;;;;;8.20;6.55;;;21.30;55.60;;;;;;5133500;27;21063;-69
2023/07/22 06:03:17;;;;;;;7.72;6.65;;;21.30;55.70;;;;;;5133305;27;20176;-68
2023/07/22 06:05:43;;;;;;;6.80;6.05;;;21.30;56.40;;;;;;5133769;27;20229;-69
2023/07/22 06:08:08;;;;;;;8.23;7.13;;;21.30;55.80;;;;;;5132950;27;20620;-68
2023/07/22 06:10:34;;;;;;;6.97;6.25;;;21.30;55.80;;;;;;5133737;27;20693;-68
2023/07/22 06:12:59;;;;;;;7.55;6.75;;;21.30;56.50;;;;;;5115003;27;20161;-67
2023/07/22 06:15:28;;;;;;;7.57;6.70;;;21.30;55.80;;;;;;5133253;27;20259;-67
2023/07/22 06:17:53;;;;;;;8.63;7.47;;;21.40;55.80;;;;;;5134017;27;20290;-67
2023/07/22 06:20:19;;;;;;;8.38;7.00;;;21.40;55.70;;;;;;5133597;27;20740;-67
2023/07/22 06:22:44;;;;;;;9.98;6.95;;;21.40;55.80;;;;;;5133033;27;20169;-67
2023/07/22 06:25:10;;;;;;;10.27;7.88;;;21.40;55.70;;;;;;5133445;27;20207;-67
2023/07/22 06:27:36;;;;;;;7.88;7.00;;;21.40;55.80;;;;;;5133589;27;20540;-67
2023/07/22 06:30:01;;;;;;;8.88;6.95;;;21.40;55.90;;;;;;5132361;27;20191;-67
2023/07/22 06:32:29;;;;;;;8.38;7.22;;;21.40;55.90;;;;;;5133482;27;20181;-67
2023/07/22 06:34:58;;;;;;;8.30;7.40;;;21.40;56.00;;;;;;5133625;27;20180;-68
2023/07/22 06:37:24;;;;;;;7.63;6.82;;;21.40;56.00;;;;;;5132853;27;20177;-68
2023/07/22 06:39:50;;;;;;;7.75;6.97;;;21.40;56.10;;;;;;5133111;27;20227;-67
2023/07/22 06:42:15;;;;;;;8.95;7.30;;;21.40;56.10;;;;;;5133110;27;20225;-67
2023/07/22 06:44:41;;;;;;;8.57;7.50;;;21.40;56.10;;;;;;5132666;27;20160;-67
2023/07/22 06:47:07;;;;;;;8.68;6.93;;;21.40;56.10;;;;;;5133262;27;20187;-66
2023/07/22 06:49:35;;;;;;;8.23;7.43;;;21.40;56.10;;;;;;5134032;27;20172;-66
2023/07/22 06:52:07;;;;;;;8.20;7.35;;;21.40;56.10;;;;;;5132350;27;20298;-65
2023/07/22 06:54:34;;;;;;;8.57;7.28;;;21.50;56.10;;;;;;5133406;28;20580;-66
2023/07/22 06:56:59;;;;;;;9.60;8.15;;;21.50;56.70;;;;;;5132639;28;20267;-67
2023/07/22 06:59:26;;;;;;;9.45;7.95;;;21.50;56.20;;;;;;5133171;28;20260;-67
2023/07/22 07:01:51;;;;;;;8.15;7.35;;;21.50;56.10;;;;;;5133350;28;20172;-68
2023/07/22 07:04:17;;;;;;;9.35;7.65;;;21.50;56.20;;;;;;5132148;28;20176;-68
2023/07/22 07:06:42;;;;;;;10.77;7.68;;;21.50;56.10;;;;;;5133102;28;20165;-68
2023/07/22 07:09:08;;;;;;;9.57;7.53;;;21.50;56.10;;;;;;5132141;28;20182;-68
2023/07/22 07:11:34;;;;;;;9.02;7.32;;;21.50;56.00;;;;;;5132228;28;20231;-67
2023/07/22 07:13:59;;;;;;;7.90;7.20;;;21.50;56.70;;;;;;5132943;28;20179;-67
2023/07/22 07:16:27;;;;;;;8.90;7.47;;;21.50;56.20;;;;;;5136439;27;20251;-66
2023/07/22 07:18:52;;;;;;;7.20;6.50;;;21.50;56.20;;;;;;5136577;27;20173;-67
2023/07/22 07:21:18;;;;;;;7.45;6.65;;;21.60;56.30;;;;;;5117604;27;20184;-67
2023/07/22 07:23:44;;;;;;;8.48;6.95;;;21.60;56.20;;;;;;5116466;28;20177;-67
2023/07/22 07:26:10;;;;;;;8.73;7.80;;;21.60;56.20;;;;;;5115341;28;20658;-67
2023/07/22 07:28:35;;;;;;;8.82;7.57;;;21.60;56.30;;;;;;5116637;28;20707;-66
2023/07/22 07:31:01;;;;;;;10.73;7.25;;;21.60;56.30;;;;;;5116044;28;20273;-67
2023/07/22 07:33:27;;;;;;;10.65;7.50;;;21.60;56.40;;;;;;5115783;28;20177;-67
2023/07/22 07:35:53;;;;;;;9.45;7.82;;;21.60;56.40;;;;;;5116265;28;20635;-69
2023/07/22 07:38:18;;;;;;;7.65;6.75;;;21.70;56.50;;;;;;5116045;28;20223;-68
2023/07/22 07:40:44;;;;;;;9.68;7.95;;;21.70;56.50;;;;;;5115284;28;20706;-67
2023/07/22 07:43:09;;;;;;;8.57;7.60;;;21.70;56.50;;;;;;5116069;28;20567;-66
2023/07/22 07:45:38;;;;;;;10.23;7.70;;;21.70;56.60;;;;;;5115934;28;20169;-67
2023/07/22 07:48:04;;;;;;;8.93;7.38;;;21.70;56.50;;;;;;5115085;28;20252;-68
2023/07/22 07:50:30;;;;;;;9.98;7.35;;;21.70;56.50;;;;;;5115714;28;20687;-66
2023/07/22 07:52:55;;;;;;;12.02;7.68;;;21.70;56.50;;;;;;5115636;28;20184;-65
2023/07/22 07:55:21;;;;;;;8.30;6.85;;;21.80;56.50;;;;;;5115215;28;20264;-67
2023/07/22 07:57:46;;;;;;;8.45;7.32;;;21.80;56.50;;;;;;5115708;28;20209;-67
2023/07/22 08:00:12;;;;;;;7.78;6.80;;;21.80;56.50;;;;;;5114944;28;20165;-69
2023/07/22 08:02:38;;;;;;;8.60;7.00;;;21.80;56.50;;;;;;5115725;28;20211;-67
2023/07/22 08:05:04;;;;;;;9.05;7.85;;;21.80;56.50;;;;;;5115150;28;20173;-69
2023/07/22 08:07:29;;;;;;;8.38;7.13;;;21.80;56.50;;;;;;5114748;28;20169;-69
2023/07/22 08:09:57;;;;;;;8.77;6.68;;;21.80;56.50;;;;;;5115397;28;20209;-69
2023/07/22 08:12:23;;;;;;;11.75;7.70;;;21.80;56.70;;;;;;5115447;28;20177;-68
2023/07/22 08:14:48;;;;;;;10.95;7.30;;;21.80;56.60;;;;;;5114908;28;20169;-67
2023/07/22 08:17:14;;;;;;;9.55;6.78;;;21.80;56.70;;;;;;5115091;28;20658;-67
2023/07/22 08:19:39;;;;;;;8.00;6.72;;;21.90;56.70;;;;;;5115546;28;20256;-67
2023/07/22 08:22:06;;;;;;;8.20;7.10;;;21.90;56.60;;;;;;5114410;28;20660;-67
2023/07/22 08:24:32;;;;;;;10.63;6.72;;;21.90;56.60;;;;;;5115378;28;20216;-67
2023/07/22 08:26:58;;;;;;;9.52;6.47;;;21.90;56.60;;;;;;5114245;28;20185;-66
2023/07/22 08:29:24;;;;;;;8.85;6.63;;;21.90;56.60;;;;;;5114675;28;20525;-67
2023/07/22 08:31:49;;;;;;;8.38;6.43;;;21.90;56.60;;;;;;5115101;28;20332;-67
2023/07/22 08:34:15;;;;;;;9.35;6.60;;;21.90;56.60;;;;;;5114829;28;20679;-66
2023/07/22 08:36:41;;;;;;;8.63;6.80;;;21.90;56.70;;;;;;5113990;28;20214;-67
2023/07/22 08:39:07;;;;;;;7.28;6.38;;;21.90;56.60;;;;;;5114390;28;20305;-67
2023/07/22 08:41:33;;;;;;;6.88;6.18;;;21.90;56.70;;;;;;5114993;28;20183;-67
2023/07/22 08:43:59;;;;;;;7.82;6.90;;;21.90;56.70;;;;;;5095938;28;20169;-66
2023/07/22 08:46:25;;;;;;;10.07;6.97;;;21.90;56.70;;;;;;5114973;28;20246;-66
2023/07/22 08:48:53;;;;;;;6.90;6.20;;;21.90;56.70;;;;;;5080040;28;20169;-66
2023/07/22 08:51:23;;;;;;;8.30;6.80;;;21.90;56.60;;;;;;5095458;28;20330;-65
2023/07/22 08:53:48;;;;;;;9.60;6.60;;;21.80;56.50;;;;;;5096847;28;20193;-65
2023/07/22 08:56:14;;;;;;;8.52;5.90;;;21.90;56.50;;;;;;5096077;28;20647;-66
2023/07/22 08:58:39;;;;;;;6.15;5.50;;;21.90;57.10;;;;;;5113775;28;20204;-66
2023/07/22 09:01:05;;;;;;;7.43;6.28;;;21.90;56.50;;;;;;5079609;28;20247;-67
2023/07/22 09:03:32;;;;;;;7.38;6.20;;;21.90;56.40;;;;;;5113624;28;20176;-66
2023/07/22 09:05:57;;;;;;;8.40;6.30;;;21.80;56.40;;;;;;5114305;28;20229;-67
2023/07/22 09:08:23;;;;;;;6.40;5.55;;;21.80;56.40;;;;;;5079811;28;20591;-66
2023/07/22 09:10:48;;;;;;;6.30;5.43;;;21.80;56.40;;;;;;5095350;28;20212;-66
2023/07/22 09:13:14;;;;;;;7.40;6.38;;;21.90;56.40;;;;;;5113990;28;20644;-66
2023/07/22 09:15:40;;;;;;;8.15;5.97;;;21.80;56.40;;;;;;5114278;28;20229;-65
2023/07/22 09:18:05;;;;;;;7.75;6.22;;;21.90;56.40;;;;;;5113399;28;20639;-66
2023/07/22 09:20:31;;;;;;;6.53;5.60;;;21.80;56.30;;;;;;5114400;28;20218;-66
2023/07/22 09:22:57;;;;;;;6.10;5.40;;;21.90;56.30;;;;;;5114018;28;20246;-66
2023/07/22 09:25:26;;;;;;;8.85;6.13;;;21.90;56.20;;;;;;5113912;28;20201;-66
2023/07/22 09:27:53;;;;;;;6.30;5.65;;;22.00;56.20;;;;;;5113992;28;20234;-66
2023/07/22 09:30:32;;;;;;;7.00;5.93;;;21.90;56.10;;;;;;5113425;28;20204;-66
2023/07/22 09:32:59;;;;;;;6.82;6.13;;;22.00;56.20;;;;;;5112889;28;20183;-68
2023/07/22 09:35:31;;;;;;;7.43;6.20;;;21.90;56.10;;;;;;5114556;28;20179;-67
2023/07/22 09:37:57;;;;;;;15.38;7.15;;;21.90;56.20;;;;;;5113518;28;20654;-67
2023/07/22 09:40:24;;;;;;;11.73;6.72;;;22.00;56.40;;;;;;5094628;28;20217;-70
2023/07/22 09:42:54;;;;;;;16.00;7.07;;;22.00;56.90;;;;;;5112875;28;20475;-66
2023/07/22 09:45:23;;;;;;;12.90;7.47;;;22.00;56.20;;;;;;5113399;28;20192;-67
2023/07/22 09:47:49;;;;;;;9.50;6.50;;;22.00;56.20;;;;;;5112809;28;20651;-67
2023/07/22 09:50:19;;;;;;;11.18;5.93;;;22.00;56.10;;;;;;5113237;28;20610;-66
2023/07/22 09:52:48;;;;;;;9.40;6.53;;;22.00;56.00;;;;;;5112817;28;20169;-66
2023/07/22 09:55:32;;;;;;;10.30;6.10;;;22.10;56.00;;;;;;5113425;28;20173;-66
2023/07/22 09:58:02;;;;;;;9.43;5.68;;;22.10;55.90;;;;;;5113173;28;20173;-68
2023/07/22 10:00:29;;;;;;;8.25;5.15;;;22.10;55.80;;;;;;5112921;28;20183;-65
2023/07/22 10:02:56;;;;;;;8.93;5.60;;;22.20;55.70;;;;;;5113636;28;20169;-68
2023/07/22 10:05:22;;;;;;;9.32;5.32;;;22.20;55.70;;;;;;5113424;28;20173;-66
2023/07/22 10:07:52;;;;;;;10.55;5.97;;;22.20;55.70;;;;;;5112471;28;20179;-65
2023/07/22 10:10:34;;;;;;;10.05;6.13;;;22.20;55.60;;;;;;5112676;28;20547;-71
2023/07/22 10:13:00;;;;;;;12.00;5.13;;;22.20;55.60;;;;;;5097443;28;20177;-68
2023/07/22 10:15:28;;;;;;;10.57;5.32;;;22.30;55.50;;;;;;5112519;28;20700;-69
2023/07/22 10:17:54;;;;;;;9.57;5.30;;;22.20;55.60;;;;;;5095043;28;20195;-68
2023/07/22 10:20:20;;;;;;;7.65;5.38;;;22.20;55.70;;;;;;5094972;28;20173;-70
2023/07/22 10:22:46;;;;;;;7.40;4.93;;;22.20;55.70;;;;;;5094353;28;20569;-68
2023/07/22 10:25:14;;;;;;;5.60;4.43;;;22.20;55.70;;;;;;5111674;28;20181;-69
2023/07/22 10:27:41;;;;;;;6.82;4.80;;;22.20;55.70;;;;;;5113017;28;20256;-68
2023/07/22 10:30:08;;;;;;;10.93;4.97;;;22.20;55.70;;;;;;5112062;28;20288;-68
2023/07/22 10:32:44;;;;;;;6.78;4.03;;;22.20;55.70;;;;;;5112648;28;20207;-68
2023/07/22 10:35:11;;;;;;;7.38;4.25;;;22.20;55.70;;;;;;5094760;27;20185;-71
2023/07/22 10:37:38;;;;;;;7.35;4.47;;;22.20;55.70;;;;;;5119491;27;20208;-71
2023/07/22 10:40:20;;;;;;;8.60;4.95;;;22.20;55.60;;;;;;5123147;27;20227;-70
2023/07/22 10:43:12;;;;;;;6.55;4.72;;;22.30;55.60;;;;;;5112000;28;20699;-69
2023/07/22 10:45:42;;;;;;;5.88;4.57;;;22.30;55.50;;;;;;5108897;28;20185;-68
2023/07/22 10:48:14;;;;;;;5.32;3.90;;;22.30;55.40;;;;;;5112484;28;20523;-67
2023/07/22 10:50:47;;;;;;;5.68;4.07;;;22.30;55.40;;;;;;5111638;28;20605;-67
2023/07/22 10:53:25;;;;;;;6.43;4.45;;;22.30;55.40;;;;;;5124693;27;20592;-68
2023/07/22 10:56:11;;;;;;;6.43;3.95;;;22.20;55.30;;;;;;5128096;28;20188;-68
2023/07/22 10:58:48;;;;;;;6.18;3.92;;;22.30;55.40;;;;;;5112550;28;20259;-69
2023/07/22 11:01:32;;;;;;;5.93;4.18;;;22.30;55.30;;;;;;5112126;28;20180;-66
2023/07/22 11:04:07;;;;;;;7.03;4.22;;;22.30;55.20;;;;;;5111346;28;20209;-69
2023/07/22 11:06:33;;;;;;;7.43;4.10;;;22.30;55.10;;;;;;5112328;28;20232;-69
2023/07/22 11:08:59;;;;;;;7.38;4.22;;;22.30;55.10;;;;;;5112020;28;20202;-71
2023/07/22 11:11:38;;;;;;;8.45;4.00;;;22.30;55.10;;;;;;5111868;28;20220;-68
2023/07/22 11:14:17;;;;;;;6.75;3.83;;;22.30;55.00;;;;;;5112319;28;20180;-68
2023/07/22 11:16:45;;;;;;;4.97;3.72;;;22.30;55.10;;;;;;5112743;28;20184;-67
2023/07/22 11:19:10;;;;;;;6.47;3.67;;;22.20;55.10;;;;;;5111575;28;20177;-68
2023/07/22 11:21:36;;;;;;;3.78;3.40;;;22.20;55.10;;;;;;5112376;28;20173;-68
2023/07/22 11:24:04;;;;;;;9.80;3.30;;;22.20;55.10;;;;;;5111927;28;20187;-69
2023/07/22 11:26:30;;;;;;;5.28;3.60;;;22.20;55.20;;;;;;5112275;28;20199;-69
2023/07/22 11:28:56;;;;;;;5.95;4.13;;;22.10;55.30;;;;;;5112173;28;20513;-69
2023/07/22 11:31:22;;;;;;;5.00;4.20;;;22.10;55.30;;;;;;5111636;28;21028;-70
2023/07/22 11:33:47;;;;;;;3.53;3.22;;;22.10;55.40;;;;;;5112068;28;20264;-69
2023/07/22 11:36:13;;;;;;;4.05;3.58;;;22.10;55.30;;;;;;5112044;28;20189;-71
2023/07/22 11:38:39;;;;;;;8.30;4.35;;;22.00;55.20;;;;;;5111138;28;20677;-69
2023/07/22 11:41:04;;;;;;;6.63;3.85;;;22.00;55.30;;;;;;5112023;28;20177;-71
2023/07/22 11:43:30;;;;;;;6.75;3.50;;;22.00;56.00;;;;;;5094333;28;20624;-69
2023/07/22 11:45:56;;;;;;;5.10;3.58;;;22.00;55.30;;;;;;5092944;28;20184;-72
2023/07/22 11:48:21;;;;;;;3.78;3.38;;;22.00;55.30;;;;;;5094009;28;20181;-71
2023/07/22 11:50:47;;;;;;;5.43;3.80;;;21.90;55.30;;;;;;5093798;28;20261;-69
2023/07/22 11:53:13;;;;;;;4.82;3.65;;;21.90;55.30;;;;;;5110900;28;20169;-70
2023/07/22 11:55:38;;;;;;;5.05;3.70;;;21.90;55.20;;;;;;5112102;28;20181;-68
2023/07/22 11:58:04;;;;;;;4.40;3.58;;;21.90;55.20;;;;;;5111742;28;20181;-70
2023/07/22 12:00:29;;;;;;;5.28;3.40;;;21.90;55.10;;;;;;5111151;28;20177;-71
2023/07/22 12:02:57;;;;;;;4.85;3.67;;;21.90;55.10;;;;;;5095974;28;20201;-70
2023/07/22 12:05:22;;;;;;;6.22;3.45;;;21.90;55.10;;;;;;5115552;28;20184;-72
2023/07/22 12:07:48;;;;;;;4.30;3.53;;;21.90;55.10;;;;;;5114906;28;20261;-68
2023/07/22 12:10:15;;;;;;;5.85;3.40;;;21.90;55.10;;;;;;5115322;28;20205;-70
2023/07/22 12:12:49;;;;;;;3.95;3.53;;;21.90;55.10;;;;;;5097331;28;20192;-68
2023/07/22 12:15:17;;;;;;;3.92;3.42;;;21.80;55.10;;;;;;5114647;28;20164;-69
2023/07/22 12:17:56;;;;;;;4.88;3.72;;;21.80;55.20;;;;;;5115393;28;20580;-69
2023/07/22 12:20:29;;;;;;;3.17;2.88;;;21.80;55.10;;;;;;5114736;28;20643;-69
2023/07/22 12:22:55;;;;;;;4.32;3.38;;;21.80;55.10;;;;;;5115515;28;20198;-68
2023/07/22 12:25:21;;;;;;;5.63;3.40;;;21.90;55.10;;;;;;5115391;28;20173;-69
2023/07/22 12:27:47;;;;;;;4.50;3.20;;;21.90;55.00;;;;;;5114483;28;20177;-67
2023/07/22 12:30:12;;;;;;;3.60;2.92;;;22.00;54.90;;;;;;5114693;28;20359;-70
2023/07/22 12:32:38;;;;;;;4.97;3.60;;;22.00;54.90;;;;;;5115414;28;20181;-70
2023/07/22 12:35:04;;;;;;;5.03;3.35;;;22.10;54.80;;;;;;5114088;28;20667;-71
2023/07/22 12:37:30;;;;;;;3.33;2.90;;;22.10;54.70;;;;;;5115096;28;20529;-69
2023/07/22 12:39:56;;;;;;;3.78;3.03;;;22.10;54.80;;;;;;5114569;28;20229;-71
2023/07/22 12:42:21;;;;;;;3.08;2.78;;;22.10;54.90;;;;;;5114294;28;20177;-70
2023/07/22 12:44:47;;;;;;;3.13;2.83;;;22.10;55.00;;;;;;5115001;28;20264;-69